Terminal Aerodrome Forecast
Issued by NWS Corpus Christi, TX

Home | Current Version | Previous Version | Text Only | Print | Product List | Glossary On
Versions: 1 2 3 4 5 6 7 8 9 10 11 12 13 14 15 16 17 18 19 20 21
000
FTUS44 KCRP 202300
TAFCRP
TAF
KCRP 202329Z 2100/2124 08009KT P6SM SCT035 BKN100
      TEMPO 2100/2102 -SHRA SCT030
     FM210300 07006KT P6SM FEW020 BKN100
     FM211100 04008KT P6SM VCSH SCT025 BKN035
     FM211900 08012G18KT P6SM SCT025=

USA.gov is the U.S. government's official web portal to all federal, state and local government web resources and services.